Nearby METAR Reports

 

KSJC - San Jose, California, USA
Distance from station: NE 9mi, 14km
Updated: Wed, 01-Apr-2015 2:53pm PDT
Mostly cloudy
Mostly cloudy
 Wind from NNW
Wind: NNW 13 mph , 20 km/h, Gust: 21 mph , 33 km/h
Temperature: 64°F , 18°C
Dew Point: 37°F , 3°C
Humidity: 37%
Barometer: 30.11 inHg , 1019.6 hPa
Clouds: Mostly cloudy
Visibility: 10 miles , 16 km
Cloud details: Few Clouds 2600 ft
Partly cloudy 12000 ft
Mostly cloudy 16000 ft
2015/04/01 21:53 KSJC 012153Z 33011G18KT 10SM FEW026 SCT120 BKN160 18/03 A3011 RMK AO2 SLP196 T01780033
KNUQ - Moffett Nas/Mtn, California, USA
Distance from station: N 9mi, 14km
Updated: Wed, 01-Apr-2015 2:56pm PDT
Clear
Clear
 Wind from NNW
Wind: NNW 16 mph , 26 km/h, Gust: 24 mph , 39 km/h
Temperature: 64°F , 18°C
Dew Point: 39°F , 4°C
Humidity: 40%
Barometer: 30.12 inHg , 1020 hPa
Clouds: Clear
Visibility: 10 miles , 16 km
2015/04/01 21:56 KNUQ 012156Z 34014G21KT 10SM CLR 18/04 A3012 RMK AO2 SLP202 T01830039
 
KPAO - Palo Alto, California, USA
Distance from station: NNW 14mi, 23km
Updated: Wed, 01-Apr-2015 2:47pm PDT
Mostly cloudy
Mostly cloudy
 Wind from NNW
Wind: NNW 17 mph , 28 km/h
Temperature: 66°F , 19°C
Dew Point: 41°F , 5°C
Humidity: 40%
Barometer: 30.12 inHg , 1020 hPa
Clouds: Mostly cloudy
Visibility: 10 miles , 16 km
Cloud details: Few Clouds 3000 ft
Mostly cloudy 20000 ft
2015/04/01 21:47 KPAO 012147Z 33015KT 10SM FEW030 BKN200 19/05 A3012
KRHV - San Jose/Reid, California, USA
Distance from station: ENE 12mi, 19km
Updated: Wed, 01-Apr-2015 2:47pm PDT
Mostly cloudy
Mostly cloudy
 Wind from NW
Wind: NW 17 mph , 28 km/h
Temperature: 66°F , 19°C
Dew Point: 32°F , 0°C
Humidity: 28%
Barometer: 30.12 inHg , 1020 hPa
Clouds: Mostly cloudy
Visibility: 10 miles , 16 km
Cloud details: Mostly cloudy 15000 ft
2015/04/01 21:47 KRHV 012147Z 32015KT 10SM BKN150 19/00 A3012
 
KOAK - Oakland, California, USA
Distance from station: NNW 31mi, 50km
Updated: Wed, 01-Apr-2015 2:53pm PDT
Mostly cloudy
Mostly cloudy
 Wind from W
Wind: W 20 mph , 31 km/h
Temperature: 64°F , 18°C
Dew Point: 43°F , 6°C
Humidity: 46%
Barometer: 30.12 inHg , 1020 hPa
Clouds: Mostly cloudy
Visibility: 10 miles , 16 km
Cloud details: Few Clouds 4000 ft
Partly cloudy 20000 ft
Mostly cloudy 25000 ft
2015/04/01 21:53 KOAK 012153Z 28017KT 10SM FEW040 SCT200 BKN250 18/06 A3012 RMK AO2 SLP198 T01830056
KSQL - San Carlos Airpo, California, USA
Distance from station: NW 21mi, 34km
Updated: Wed, 01-Apr-2015 2:51pm PDT
Mostly cloudy
Mostly cloudy
 Wind from NNE
Wind: NNE 18 mph , 30 km/h, Gust: 25 mph , 41 km/h
Temperature: 63°F , 17°C
Dew Point: 39°F , 4°C
Humidity: 42%
Barometer: 30.14 inHg , 1020.7 hPa
Clouds: Mostly cloudy
Visibility: 10 miles , 16 km
Cloud details: Mostly cloudy 20000 ft
2015/04/01 21:51 KSQL 012151Z 39016G22KT 10SM BKN200 17/04 A3014
 
KSFO - San Francisco, California, USA
Distance from station: NW 30mi, 49km
Updated: Wed, 01-Apr-2015 2:56pm PDT
Mostly cloudy
Mostly cloudy
 Wind from W
Wind: W 24 mph , 39 km/h, Gust: 31 mph , 50 km/h
Temperature: 61°F , 16°C
Dew Point: 45°F , 7°C
Humidity: 55%
Barometer: 30.14 inHg , 1020.7 hPa
Clouds: Mostly cloudy
Visibility: 10 miles , 16 km
Cloud details: Few Clouds 4000 ft
Mostly cloudy 20000 ft
2015/04/01 21:56 KSFO 012156Z 28021G27KT 10SM FEW040 BKN200 16/07 A3014 RMK AO2 PK WND 28030/2114 SLP205 T01610067
KE16 - San Martin, California, USA
Distance from station: ESE 27mi, 43km
Updated: Wed, 01-Apr-2015 3:15pm PDT
Clear
Clear
 Wind from NNW
Wind: NNW 16 mph , 26 km/h, Gust: 23 mph , 37 km/h
Temperature: 64°F , 18°C
Dew Point: 30°F , -1°C
Humidity: 28%
Barometer: 30.10 inHg , 1019.3 hPa
Clouds: Clear
Visibility: 10 miles , 16 km
2015/04/01 22:15 KE16 012215Z AUTO 33014G20KT 10SM CLR 18/M01 A3010 RMK AO2
 
KWVI - Watsonville, California, USA
Distance from station: SSE 27mi, 44km
Updated: Wed, 01-Apr-2015 2:53pm PDT
Clear
Clear
 Wind from SW
Wind: SW 9 mph , 15 km/h
Temperature: 66°F , 19°C
Dew Point: 43°F , 6°C
Humidity: 43%
Barometer: 30.10 inHg , 1019.3 hPa
Clouds: Clear
Visibility: 10 miles , 16 km
2015/04/01 21:53 KWVI 012153Z AUTO 23008KT 10SM CLR 19/06 A3010 RMK AO2 SLP191 T01940056
KHAF - Half Moon Bay, California, USA
Distance from station: WNW 31mi, 50km
Updated: Wed, 01-Apr-2015 3:15pm PDT
Haze, Clear
Haze, Clear
 Wind from NNW
Wind: NNW 20 mph , 31 km/h, Gust: 25 mph , 41 km/h
Temperature: 57°F , 14°C
Dew Point: 48°F , 9°C
Humidity: 72%
Barometer: 30.16 inHg , 1021.3 hPa
Summary: Haze
Clouds: Clear
Visibility: 5 miles , 8 km
2015/04/01 22:15 KHAF 012215Z AUTO 33017G22KT 5SM HZ CLR 14/09 A3016 RMK AO2
 
KHWD - Hayward, California, USA
Distance from station: N 28mi, 44km
Updated: Wed, 01-Apr-2015 2:54pm PDT
Clear
Clear
 Wind from W
Wind: W 16 mph , 26 km/h, Gust: 24 mph , 39 km/h
Temperature: 64°F , 18°C
Dew Point: 43°F , 6°C
Humidity: 46%
Barometer: 30.12 inHg , 1020 hPa
Clouds: Clear
Visibility: 10 miles , 16 km
2015/04/01 21:54 KHWD 012154Z 27014G21KT 10SM CLR 18/06 A3012 RMK AO2 SLP208 T01830061
KLVK - Livermore, California, USA
Distance from station: NNE 31mi, 51km
Updated: Wed, 01-Apr-2015 2:53pm PDT
Clear
Clear
 Wind from WSW
Wind: WSW 12 mph , 19 km/h
Temperature: 68°F , 20°C
Dew Point: 34°F , 1°C
Humidity: 28%
Barometer: 30.09 inHg , 1019 hPa
Clouds: Clear
Visibility: 10 miles , 16 km
2015/04/01 21:53 KLVK 012153Z 25010KT 10SM CLR 20/01 A3009 RMK AO2 SLP188 T02000011